Time;durP1;ratioP1;P1;durP2;ratioP2;P2;SDS_P1;SDS_P2;PMS_P1;PMS_P2;Temp;Humidity;BMP_temperature;BMP_pressure;BME280_temperature;BME280_humidity;BME280_pressure;Samples;Min_cycle;Max_cycle;Signal;HPM_P1;HPM_P2
2022/01/07 00:01:12;;;;;;;4.78;1.10;;;5.50;99.90;;;;;;5084067;28;20044;-57
2022/01/07 00:03:39;;;;;;;4.47;1.42;;;5.50;99.90;;;;;;5083037;28;20525;-57
2022/01/07 00:06:06;;;;;;;4.25;1.35;;;5.50;99.90;;;;;;5084246;28;20076;-57
2022/01/07 00:08:32;;;;;;;3.28;1.27;;;5.50;99.90;;;;;;5076601;28;20120;-58
2022/01/07 00:10:59;;;;;;;3.45;1.27;;;5.50;99.90;;;;;;5081781;28;20079;-56
2022/01/07 00:13:26;;;;;;;4.50;1.45;;;5.50;99.90;;;;;;5081423;28;20424;-57
2022/01/07 00:15:54;;;;;;;4.40;1.20;;;5.60;99.90;;;;;;5083966;28;20132;-58
2022/01/07 00:18:21;;;;;;;7.00;1.70;;;5.70;99.90;;;;;;5083824;28;20129;-58
2022/01/07 00:20:49;;;;;;;7.47;1.98;;;5.70;99.90;;;;;;5083974;28;20133;-56
2022/01/07 00:23:15;;;;;;;5.78;1.73;;;5.70;99.90;;;;;;5083706;28;20143;-56
2022/01/07 00:25:42;;;;;;;5.00;1.38;;;5.50;99.90;;;;;;5083319;28;20209;-57
2022/01/07 00:28:09;;;;;;;2.90;0.90;;;5.40;99.90;;;;;;5083527;28;20076;-56
2022/01/07 00:30:36;;;;;;;3.25;1.25;;;5.30;99.90;;;;;;5082695;28;20051;-56
2022/01/07 00:33:04;;;;;;;2.75;0.90;;;5.20;99.90;;;;;;5082351;28;20048;-56
2022/01/07 00:35:31;;;;;;;2.53;0.57;;;5.10;99.90;;;;;;5083735;28;20119;-58
2022/01/07 00:37:58;;;;;;;2.40;0.70;;;5.00;99.90;;;;;;5083532;28;20052;-58
2022/01/07 00:40:24;;;;;;;1.23;0.57;;;5.00;99.90;;;;;;5083097;28;20047;-58
2022/01/07 00:42:51;;;;;;;3.60;0.75;;;4.90;99.90;;;;;;5082501;28;20083;-57
2022/01/07 00:45:19;;;;;;;2.00;0.90;;;4.80;99.90;;;;;;5082004;28;20124;-58
2022/01/07 00:47:46;;;;;;;1.33;0.50;;;4.80;99.90;;;;;;5077634;28;20056;-58
2022/01/07 00:50:13;;;;;;;2.28;0.68;;;4.70;99.90;;;;;;5082406;28;20127;-57
2022/01/07 00:52:40;;;;;;;1.67;0.70;;;4.60;99.90;;;;;;5083398;28;20564;-57
2022/01/07 00:55:08;;;;;;;2.85;0.70;;;4.60;99.90;;;;;;5082966;28;20126;-57
2022/01/07 00:57:35;;;;;;;1.77;0.65;;;4.60;99.90;;;;;;5083502;28;20139;-57
2022/01/07 01:00:04;;;;;;;1.98;0.73;;;4.60;99.90;;;;;;5081444;28;20548;-57
2022/01/07 01:02:30;;;;;;;2.30;0.60;;;4.50;99.90;;;;;;5082005;28;20506;-57
2022/01/07 01:04:57;;;;;;;2.28;0.80;;;4.50;99.90;;;;;;5082248;28;20076;-56
2022/01/07 01:07:24;;;;;;;1.95;0.70;;;4.50;99.90;;;;;;5082790;28;20440;-57
2022/01/07 01:09:51;;;;;;;1.23;0.60;;;4.50;99.90;;;;;;5082455;28;20544;-56
2022/01/07 01:12:18;;;;;;;1.02;0.40;;;4.40;99.90;;;;;;5082790;28;20087;-58
2022/01/07 01:14:44;;;;;;;2.00;0.70;;;4.40;99.90;;;;;;5081718;28;20127;-57
2022/01/07 01:17:11;;;;;;;1.45;0.50;;;4.40;99.90;;;;;;5083201;28;20079;-54
2022/01/07 01:19:38;;;;;;;2.13;0.60;;;4.40;99.90;;;;;;5082229;28;20119;-55
2022/01/07 01:22:05;;;;;;;0.90;0.70;;;4.40;99.90;;;;;;5070718;28;20048;-57
2022/01/07 01:24:32;;;;;;;4.05;0.65;;;4.40;99.90;;;;;;5082221;28;20131;-55
2022/01/07 01:26:59;;;;;;;2.63;0.52;;;4.30;99.90;;;;;;5083217;28;20075;-57
2022/01/07 01:29:25;;;;;;;2.90;0.70;;;4.30;99.90;;;;;;5081281;28;20083;-58
2022/01/07 01:31:52;;;;;;;1.27;0.60;;;4.40;99.90;;;;;;5081926;28;20143;-57
2022/01/07 01:34:19;;;;;;;7.95;1.10;;;4.40;99.90;;;;;;5080609;28;20104;-56
2022/01/07 01:36:46;;;;;;;2.90;0.82;;;4.40;99.90;;;;;;5082560;28;20063;-53
2022/01/07 01:39:12;;;;;;;3.17;1.10;;;4.40;99.90;;;;;;5081814;28;20135;-55
2022/01/07 01:41:40;;;;;;;6.63;1.05;;;4.50;99.90;;;;;;5082342;28;20052;-57
2022/01/07 01:44:07;;;;;;;3.22;1.15;;;4.50;99.90;;;;;;5080323;28;20075;-58
2022/01/07 01:46:34;;;;;;;6.78;1.25;;;4.50;99.90;;;;;;5082559;28;20079;-57
2022/01/07 01:49:01;;;;;;;2.85;1.17;;;4.50;99.90;;;;;;5080143;28;20082;-57
2022/01/07 01:51:27;;;;;;;2.47;0.90;;;4.50;99.90;;;;;;5081176;28;20165;-56
2022/01/07 01:53:54;;;;;;;3.95;1.42;;;4.50;99.90;;;;;;5081923;28;20046;-53
2022/01/07 01:56:21;;;;;;;3.55;2.08;;;4.50;99.90;;;;;;5082065;28;20120;-54
2022/01/07 01:58:48;;;;;;;3.92;1.20;;;4.40;99.90;;;;;;5081618;28;20130;-56
2022/01/07 02:01:15;;;;;;;3.47;1.58;;;4.40;99.90;;;;;;5081397;28;20067;-54
2022/01/07 02:03:42;;;;;;;5.78;1.63;;;4.40;99.90;;;;;;5081513;28;20051;-53
2022/01/07 02:06:09;;;;;;;2.95;1.23;;;4.40;99.90;;;;;;5081943;28;20318;-55
2022/01/07 02:08:36;;;;;;;3.10;1.00;;;4.40;99.90;;;;;;5080314;28;20514;-55
2022/01/07 02:11:04;;;;;;;6.40;1.50;;;4.40;99.90;;;;;;5081826;28;20093;-59
2022/01/07 02:13:31;;;;;;;6.28;1.40;;;4.50;99.90;;;;;;5078624;28;20146;-56
2022/01/07 02:15:57;;;;;;;3.67;1.10;;;4.50;99.90;;;;;;5081757;28;20130;-57
2022/01/07 02:18:24;;;;;;;4.40;1.10;;;4.50;99.90;;;;;;5081290;28;20151;-57
2022/01/07 02:20:51;;;;;;;5.50;1.25;;;4.60;99.90;;;;;;5082118;28;20626;-56
2022/01/07 02:23:18;;;;;;;4.00;1.50;;;4.60;99.90;;;;;;5081371;28;20529;-55
2022/01/07 02:25:45;;;;;;;5.22;1.35;;;4.60;99.90;;;;;;5081679;28;20087;-55
2022/01/07 02:28:12;;;;;;;4.28;1.13;;;4.60;99.90;;;;;;5081385;28;20140;-56
2022/01/07 02:30:39;;;;;;;7.95;1.05;;;4.70;99.90;;;;;;5080949;28;20086;-51
2022/01/07 02:33:06;;;;;;;2.85;1.30;;;4.70;99.90;;;;;;5080452;28;20158;-57
2022/01/07 02:35:34;;;;;;;7.15;1.60;;;4.70;99.90;;;;;;5083404;28;20135;-55
2022/01/07 02:38:01;;;;;;;5.97;1.50;;;4.80;99.90;;;;;;5083870;28;20090;-57
2022/01/07 02:40:27;;;;;;;4.28;1.50;;;4.80;99.90;;;;;;5082542;28;20082;-55
2022/01/07 02:42:54;;;;;;;6.65;1.50;;;4.80;99.90;;;;;;5082834;28;20086;-56
2022/01/07 02:45:21;;;;;;;3.80;1.27;;;4.80;99.90;;;;;;5082377;28;20132;-56
2022/01/07 02:47:54;;;;;;;4.43;1.33;;;4.80;99.90;;;;;;5083365;28;20566;-55
2022/01/07 02:50:34;;;;;;;4.47;1.48;;;4.90;99.90;;;;;;5079549;28;20083;-55
2022/01/07 02:53:01;;;;;;;5.50;1.27;;;4.90;99.90;;;;;;5083446;28;20080;-54
2022/01/07 02:55:27;;;;;;;2.92;1.23;;;4.90;99.90;;;;;;5065529;28;20253;-54
2022/01/07 02:57:54;;;;;;;2.80;1.13;;;4.90;99.90;;;;;;5086924;28;20456;-52
2022/01/07 03:00:22;;;;;;;4.78;1.40;;;4.90;99.90;;;;;;5063973;28;20040;-55
2022/01/07 03:02:49;;;;;;;4.72;1.38;;;4.90;99.90;;;;;;5073429;28;20182;-55
2022/01/07 03:05:17;;;;;;;2.05;0.95;;;4.90;99.90;;;;;;5086301;28;20054;-55
2022/01/07 03:07:47;;;;;;;3.83;1.20;;;4.90;99.90;;;;;;5086121;28;20598;-54
2022/01/07 03:10:14;;;;;;;2.92;1.00;;;4.80;99.90;;;;;;5085556;28;20082;-56
2022/01/07 03:12:43;;;;;;;3.53;1.10;;;4.80;99.90;;;;;;5085797;28;20151;-56
2022/01/07 03:15:11;;;;;;;5.68;1.70;;;4.80;99.90;;;;;;5085818;28;20076;-57
2022/01/07 03:17:40;;;;;;;7.22;1.73;;;4.80;99.90;;;;;;5085879;28;20103;-56
2022/01/07 03:20:14;;;;;;;8.60;1.73;;;4.80;99.90;;;;;;5086225;28;20104;-57
2022/01/07 03:22:41;;;;;;;5.72;1.70;;;4.80;99.90;;;;;;5087146;28;20407;-56
2022/01/07 03:25:08;;;;;;;3.58;1.80;;;4.80;99.90;;;;;;5086752;28;20090;-55
2022/01/07 03:27:35;;;;;;;8.18;1.88;;;4.80;99.90;;;;;;5086637;28;20135;-55
2022/01/07 03:30:03;;;;;;;6.68;1.45;;;4.80;99.90;;;;;;5085075;28;20148;-53
2022/01/07 03:32:30;;;;;;;11.13;2.00;;;4.80;99.90;;;;;;5085215;28;20127;-55
2022/01/07 03:34:56;;;;;;;8.40;1.98;;;4.80;99.90;;;;;;5085992;28;20162;-55
2022/01/07 03:37:23;;;;;;;5.28;1.58;;;4.80;99.90;;;;;;5085202;28;20043;-55
2022/01/07 03:39:50;;;;;;;3.88;1.35;;;4.80;99.90;;;;;;5084681;28;20559;-51
2022/01/07 03:42:16;;;;;;;2.70;0.90;;;4.80;99.90;;;;;;5085303;28;20127;-53
2022/01/07 03:44:43;;;;;;;8.30;1.55;;;4.80;99.90;;;;;;5083676;28;20075;-55
2022/01/07 03:47:10;;;;;;;2.58;1.08;;;4.80;99.90;;;;;;5086602;28;20155;-56
2022/01/07 03:49:37;;;;;;;5.88;1.85;;;4.80;99.90;;;;;;5085519;28;20062;-52
2022/01/07 03:52:04;;;;;;;7.53;1.45;;;4.80;99.90;;;;;;5086542;28;20109;-54
2022/01/07 03:54:31;;;;;;;5.47;1.42;;;4.80;99.90;;;;;;5086153;28;20538;-53
2022/01/07 03:56:58;;;;;;;7.00;1.98;;;4.80;99.90;;;;;;5086265;28;20614;-56
2022/01/07 03:59:25;;;;;;;6.13;1.88;;;4.80;99.90;;;;;;5082184;28;20083;-55
2022/01/07 04:01:52;;;;;;;5.55;1.42;;;4.70;99.90;;;;;;5084944;28;20075;-56
2022/01/07 04:04:19;;;;;;;3.67;1.50;;;4.70;99.90;;;;;;5085275;28;20165;-56
2022/01/07 04:06:45;;;;;;;5.03;1.15;;;4.70;99.90;;;;;;5086141;28;20954;-53
2022/01/07 04:09:12;;;;;;;6.80;1.75;;;4.70;99.90;;;;;;5063468;28;20048;-56
2022/01/07 04:11:39;;;;;;;4.63;1.55;;;4.70;99.90;;;;;;5085799;28;20083;-56
2022/01/07 04:14:05;;;;;;;4.97;1.15;;;4.70;99.90;;;;;;5082144;28;20100;-56
2022/01/07 04:16:32;;;;;;;5.13;1.60;;;4.70;99.90;;;;;;5085729;28;20696;-56
2022/01/07 04:18:59;;;;;;;7.13;1.38;;;4.60;99.90;;;;;;5084724;28;20079;-56
2022/01/07 04:21:26;;;;;;;3.88;1.77;;;4.60;99.90;;;;;;5085158;28;20417;-54
2022/01/07 04:23:52;;;;;;;4.15;1.48;;;4.60;99.90;;;;;;5084545;28;20542;-55
2022/01/07 04:26:19;;;;;;;5.32;1.60;;;4.60;99.90;;;;;;5085130;28;20140;-56
2022/01/07 04:28:46;;;;;;;6.38;1.23;;;4.60;99.90;;;;;;5082479;28;20167;-53
2022/01/07 04:31:12;;;;;;;5.82;1.20;;;4.60;99.90;;;;;;5085747;28;20086;-55
2022/01/07 04:33:39;;;;;;;3.88;1.08;;;4.60;99.90;;;;;;5084982;28;20075;-54
2022/01/07 04:36:07;;;;;;;3.45;1.50;;;4.50;99.90;;;;;;5084392;28;20048;-56
2022/01/07 04:38:34;;;;;;;5.93;1.48;;;4.50;99.90;;;;;;5072366;28;20127;-54
2022/01/07 04:41:00;;;;;;;4.45;1.65;;;4.60;99.90;;;;;;5085204;28;20091;-56
2022/01/07 04:43:27;;;;;;;3.55;1.20;;;4.60;99.90;;;;;;5084126;28;20388;-55
2022/01/07 04:45:54;;;;;;;3.58;1.02;;;4.60;99.90;;;;;;5085366;28;20040;-56
2022/01/07 04:48:21;;;;;;;2.58;0.85;;;4.60;99.90;;;;;;5085959;28;20131;-54
2022/01/07 04:50:47;;;;;;;5.05;1.00;;;4.50;99.90;;;;;;5085277;28;20128;-58
2022/01/07 04:53:14;;;;;;;2.75;1.00;;;4.50;99.90;;;;;;5084833;28;20135;-56
2022/01/07 04:55:43;;;;;;;3.90;0.95;;;4.50;99.90;;;;;;5085289;28;20134;-55
2022/01/07 04:58:11;;;;;;;3.85;1.10;;;4.50;99.90;;;;;;5085471;28;20388;-56
2022/01/07 05:00:38;;;;;;;4.18;1.10;;;4.50;99.90;;;;;;5082458;28;20128;-54
2022/01/07 05:03:06;;;;;;;3.58;1.20;;;4.50;99.90;;;;;;5079633;28;20055;-54
2022/01/07 05:05:32;;;;;;;6.82;1.20;;;4.60;99.90;;;;;;5083047;28;20419;-56
2022/01/07 05:08:00;;;;;;;4.88;1.10;;;4.50;99.90;;;;;;5083582;28;20135;-55
2022/01/07 05:10:27;;;;;;;4.05;1.05;;;4.50;99.90;;;;;;5083513;28;20979;-53
2022/01/07 05:12:54;;;;;;;2.00;1.00;;;4.50;99.90;;;;;;5083918;28;20151;-55
2022/01/07 05:15:22;;;;;;;3.00;1.00;;;4.50;99.90;;;;;;5083557;28;20131;-55
2022/01/07 05:17:49;;;;;;;6.32;1.75;;;4.50;99.90;;;;;;5084640;28;20039;-54
2022/01/07 05:20:16;;;;;;;2.45;0.95;;;4.50;99.90;;;;;;5083654;28;20072;-53
2022/01/07 05:22:43;;;;;;;2.50;0.73;;;4.50;99.90;;;;;;5083428;28;20131;-54
2022/01/07 05:25:11;;;;;;;2.30;0.80;;;4.40;99.90;;;;;;5082783;28;20594;-54
2022/01/07 05:27:38;;;;;;;3.67;0.90;;;4.40;99.90;;;;;;5084797;28;20123;-54
2022/01/07 05:30:06;;;;;;;1.55;0.70;;;4.40;99.90;;;;;;5082911;28;20051;-55
2022/01/07 05:32:33;;;;;;;2.65;0.90;;;4.40;99.90;;;;;;5084170;28;20130;-54
2022/01/07 05:34:59;;;;;;;3.35;0.80;;;4.40;99.90;;;;;;5083601;28;20139;-55
2022/01/07 05:37:26;;;;;;;3.13;0.90;;;4.30;99.90;;;;;;5084178;28;20193;-53
2022/01/07 05:39:55;;;;;;;4.25;1.00;;;4.20;99.90;;;;;;5084348;28;20240;-56
2022/01/07 05:42:23;;;;;;;3.83;0.93;;;4.20;99.90;;;;;;5081753;28;21318;-53
2022/01/07 05:44:49;;;;;;;2.95;0.80;;;4.20;99.90;;;;;;5080032;28;20127;-55
2022/01/07 05:47:16;;;;;;;2.30;0.68;;;4.20;99.90;;;;;;5074444;28;20486;-56
2022/01/07 05:49:43;;;;;;;2.65;0.98;;;4.20;99.90;;;;;;5082985;28;20075;-56
2022/01/07 05:52:09;;;;;;;2.88;0.80;;;4.20;99.90;;;;;;5084274;28;20464;-56
2022/01/07 05:54:36;;;;;;;5.28;1.60;;;4.10;99.90;;;;;;5082416;28;20079;-54
2022/01/07 05:57:03;;;;;;;2.55;0.70;;;4.10;99.90;;;;;;5084275;28;20166;-55
2022/01/07 05:59:33;;;;;;;3.92;1.05;;;4.10;99.90;;;;;;5081983;28;20100;-56
2022/01/07 06:02:00;;;;;;;2.55;0.80;;;4.10;99.90;;;;;;5081907;28;20052;-55
2022/01/07 06:04:27;;;;;;;2.10;0.60;;;4.10;99.90;;;;;;5069734;28;20117;-55
2022/01/07 06:06:54;;;;;;;1.70;0.50;;;4.00;99.90;;;;;;5077565;28;20097;-56
2022/01/07 06:09:21;;;;;;;2.95;0.80;;;4.10;99.90;;;;;;5076192;28;20127;-54
2022/01/07 06:11:47;;;;;;;1.73;0.70;;;4.00;99.90;;;;;;5081717;28;20100;-56
2022/01/07 06:14:14;;;;;;;2.03;0.60;;;4.00;99.90;;;;;;5079698;28;20079;-55
2022/01/07 06:16:44;;;;;;;1.98;0.70;;;4.00;99.90;;;;;;5080448;28;20048;-56
2022/01/07 06:19:11;;;;;;;2.65;0.73;;;4.00;99.90;;;;;;5078129;28;20052;-54
2022/01/07 06:21:38;;;;;;;1.92;0.70;;;4.00;99.90;;;;;;5076060;28;20080;-55
2022/01/07 06:24:06;;;;;;;2.85;1.05;;;4.00;99.90;;;;;;5080978;28;20072;-55
2022/01/07 06:26:32;;;;;;;4.38;0.90;;;4.10;99.90;;;;;;5080342;28;20125;-53
2022/01/07 06:28:59;;;;;;;2.85;0.65;;;4.10;99.90;;;;;;5078884;28;20044;-55
2022/01/07 06:31:26;;;;;;;3.35;0.70;;;4.10;99.90;;;;;;5081169;28;20437;-55
2022/01/07 06:33:53;;;;;;;3.05;1.13;;;4.10;99.90;;;;;;5084424;28;20044;-55
2022/01/07 06:36:19;;;;;;;3.33;0.90;;;4.10;99.90;;;;;;5085858;28;20131;-55
2022/01/07 06:38:46;;;;;;;3.30;0.70;;;4.10;99.90;;;;;;5084712;28;20175;-56
2022/01/07 06:41:13;;;;;;;4.40;0.95;;;4.20;99.90;;;;;;5080261;28;20193;-58
2022/01/07 06:43:40;;;;;;;3.60;0.77;;;4.20;99.90;;;;;;5081180;28;20135;-53
2022/01/07 06:46:08;;;;;;;4.35;0.90;;;4.20;99.90;;;;;;5082731;28;20071;-54
2022/01/07 06:48:35;;;;;;;2.75;0.80;;;4.30;99.90;;;;;;5082772;28;20457;-54
2022/01/07 06:51:02;;;;;;;4.43;1.42;;;4.30;99.90;;;;;;5083934;28;20139;-56
2022/01/07 06:53:30;;;;;;;1.77;0.93;;;4.40;99.90;;;;;;5082120;28;20063;-55
2022/01/07 06:55:57;;;;;;;4.72;1.52;;;4.30;99.90;;;;;;5081354;28;20121;-55
2022/01/07 06:58:24;;;;;;;5.95;2.33;;;4.40;99.90;;;;;;5079727;28;20064;-52
2022/01/07 07:00:51;;;;;;;3.03;0.90;;;4.40;99.90;;;;;;5077657;28;20044;-55
2022/01/07 07:03:18;;;;;;;3.00;1.10;;;4.40;99.90;;;;;;5081349;28;20079;-53
2022/01/07 07:05:45;;;;;;;2.88;1.05;;;4.40;99.90;;;;;;5081706;28;20063;-56
2022/01/07 07:08:12;;;;;;;3.13;1.10;;;4.40;99.90;;;;;;5080212;28;20154;-55
2022/01/07 07:10:39;;;;;;;2.97;1.15;;;4.30;99.90;;;;;;5081173;28;20606;-54
2022/01/07 07:13:06;;;;;;;4.43;0.93;;;4.30;99.90;;;;;;5080766;28;20143;-53
2022/01/07 07:15:32;;;;;;;3.03;1.00;;;4.30;99.90;;;;;;5079922;28;20048;-54
2022/01/07 07:17:59;;;;;;;4.10;1.17;;;4.30;99.90;;;;;;5080961;28;20079;-54
2022/01/07 07:20:26;;;;;;;2.78;0.93;;;4.30;99.90;;;;;;5081046;28;20123;-55
2022/01/07 07:22:53;;;;;;;2.78;0.80;;;4.30;99.90;;;;;;5079788;28;20047;-54
2022/01/07 07:25:22;;;;;;;2.85;1.00;;;4.20;99.90;;;;;;5080326;28;20116;-56
2022/01/07 07:27:50;;;;;;;5.78;1.17;;;4.20;99.90;;;;;;5079174;28;20048;-57
2022/01/07 07:30:17;;;;;;;3.78;0.98;;;4.20;99.90;;;;;;5078775;28;20127;-56
2022/01/07 07:32:44;;;;;;;4.72;1.13;;;4.20;99.90;;;;;;5079722;28;20166;-55
2022/01/07 07:37:47;;;;;;;4.15;1.00;;;4.10;99.90;;;;;;5079199;28;20455;-55
2022/01/07 07:40:14;;;;;;;5.30;0.80;;;4.10;99.90;;;;;;5080629;28;20157;-56
2022/01/07 07:42:41;;;;;;;4.43;1.40;;;4.10;99.90;;;;;;5076676;28;20127;-56
2022/01/07 07:45:09;;;;;;;4.18;1.10;;;4.10;99.90;;;;;;5079591;28;20036;-55
2022/01/07 07:47:35;;;;;;;2.95;1.00;;;4.00;99.90;;;;;;5080821;28;20519;-54
2022/01/07 07:50:03;;;;;;;3.38;0.90;;;4.00;99.90;;;;;;5078356;28;20131;-57
2022/01/07 07:52:30;;;;;;;2.03;0.80;;;4.00;99.90;;;;;;5078538;28;20040;-55
2022/01/07 07:54:56;;;;;;;4.15;1.08;;;4.00;99.90;;;;;;5080429;28;20174;-56
2022/01/07 07:57:23;;;;;;;2.17;0.80;;;4.00;99.90;;;;;;5081539;28;20166;-56
2022/01/07 07:59:50;;;;;;;5.55;1.08;;;4.00;99.90;;;;;;5079750;28;20131;-56
2022/01/07 08:02:16;;;;;;;4.03;0.70;;;4.00;99.90;;;;;;5080804;28;20160;-54
2022/01/07 08:04:43;;;;;;;2.03;0.82;;;3.90;99.90;;;;;;5080140;28;20047;-56
2022/01/07 08:07:16;;;;;;;1.70;0.63;;;3.90;99.90;;;;;;5080937;28;20161;-55
2022/01/07 08:09:44;;;;;;;3.85;0.70;;;3.90;99.90;;;;;;5080420;28;20109;-55
2022/01/07 08:12:26;;;;;;;2.33;0.88;;;3.90;99.90;;;;;;5079382;28;20373;-55
2022/01/07 08:17:38;;;;;;;3.55;1.33;;;3.80;99.90;;;;;;5074448;28;20044;-55
2022/01/07 08:20:05;;;;;;;1.85;0.80;;;3.80;99.90;;;;;;5080090;28;20066;-56
2022/01/07 08:22:32;;;;;;;1.70;0.68;;;3.80;99.90;;;;;;5081047;28;20562;-56
2022/01/07 08:24:59;;;;;;;4.20;0.70;;;3.80;99.90;;;;;;5078594;28;20476;-55
2022/01/07 08:27:25;;;;;;;2.63;0.77;;;3.80;99.90;;;;;;5080655;28;20148;-54
2022/01/07 08:30:11;;;;;;;4.78;0.82;;;3.80;99.90;;;;;;5077154;28;20083;-54
2022/01/07 08:35:23;;;;;;;2.53;0.80;;;3.90;99.90;;;;;;5077513;28;20131;-56
2022/01/07 08:37:50;;;;;;;3.47;0.70;;;3.90;99.90;;;;;;5080144;28;20087;-55
2022/01/07 08:40:17;;;;;;;2.85;0.80;;;4.00;99.90;;;;;;5074133;28;20080;-56
2022/01/07 08:42:43;;;;;;;3.78;1.05;;;4.00;99.90;;;;;;5078706;28;20142;-56
2022/01/07 08:45:10;;;;;;;3.83;0.77;;;4.10;99.90;;;;;;5078969;28;20980;-55
2022/01/07 08:47:37;;;;;;;2.80;0.90;;;4.20;99.90;;;;;;5080703;28;20496;-54
2022/01/07 08:50:04;;;;;;;3.38;1.08;;;4.20;99.90;;;;;;5078785;28;20130;-55
2022/01/07 08:52:31;;;;;;;5.35;1.38;;;4.30;99.90;;;;;;5078167;28;20075;-53
2022/01/07 08:54:57;;;;;;;3.63;1.17;;;4.30;99.90;;;;;;5079037;28;20091;-53
2022/01/07 08:57:24;;;;;;;2.72;1.08;;;4.30;99.90;;;;;;5079392;28;20048;-51
2022/01/07 08:59:52;;;;;;;2.03;0.90;;;4.30;99.90;;;;;;5078209;28;20135;-55
2022/01/07 09:02:19;;;;;;;2.97;1.10;;;4.30;99.90;;;;;;5080033;28;20747;-54
2022/01/07 09:04:46;;;;;;;3.65;1.20;;;4.30;99.90;;;;;;5078975;28;20189;-53
2022/01/07 09:07:12;;;;;;;3.70;1.00;;;4.30;99.90;;;;;;5077932;28;20760;-56
2022/01/07 09:09:40;;;;;;;2.05;0.90;;;4.30;99.90;;;;;;5079240;28;20660;-56
2022/01/07 09:12:08;;;;;;;3.10;1.08;;;4.40;99.90;;;;;;5079345;28;20491;-56
2022/01/07 09:14:34;;;;;;;6.47;1.10;;;4.40;99.90;;;;;;5078136;28;20656;-56
2022/01/07 09:17:01;;;;;;;3.47;1.30;;;4.40;99.90;;;;;;5079502;28;20079;-55
2022/01/07 09:19:28;;;;;;;3.75;1.60;;;4.40;99.90;;;;;;5078400;28;20101;-56
2022/01/07 09:21:56;;;;;;;4.32;1.85;;;4.50;99.90;;;;;;5079787;28;20059;-54
2022/01/07 09:24:23;;;;;;;4.30;1.10;;;4.50;99.90;;;;;;5077844;28;20075;-55
2022/01/07 09:26:50;;;;;;;4.38;1.40;;;4.60;99.90;;;;;;5077813;28;20080;-55
2022/01/07 09:29:17;;;;;;;3.45;1.38;;;4.70;99.90;;;;;;5078923;28;20087;-54
2022/01/07 09:31:44;;;;;;;5.90;1.20;;;4.70;99.90;;;;;;5063798;28;20080;-56
2022/01/07 09:34:10;;;;;;;3.92;1.00;;;4.80;99.90;;;;;;5074282;28;20497;-55
2022/01/07 09:36:54;;;;;;;2.90;1.08;;;4.80;99.90;;;;;;5077087;28;20455;-54
2022/01/07 09:39:20;;;;;;;3.00;1.10;;;4.90;99.90;;;;;;5078083;28;20131;-53
2022/01/07 09:41:47;;;;;;;3.15;1.00;;;4.90;99.90;;;;;;5076648;28;20512;-53
2022/01/07 09:44:14;;;;;;;1.48;0.90;;;4.80;99.90;;;;;;5076283;28;20039;-53
2022/01/07 09:46:41;;;;;;;3.67;1.20;;;4.80;99.90;;;;;;5077144;28;20087;-55
2022/01/07 09:49:08;;;;;;;3.22;1.02;;;4.70;99.90;;;;;;5075632;28;20135;-55
2022/01/07 09:51:38;;;;;;;2.65;1.10;;;4.70;99.90;;;;;;5078374;28;20146;-52
2022/01/07 09:54:06;;;;;;;3.10;0.70;;;4.70;99.90;;;;;;5078459;28;20051;-54
2022/01/07 09:56:32;;;;;;;1.73;0.60;;;4.60;99.90;;;;;;5079624;28;20083;-54
2022/01/07 09:59:01;;;;;;;3.05;0.75;;;4.60;99.90;;;;;;5076315;28;20127;-54
2022/01/07 10:01:28;;;;;;;4.25;0.93;;;4.60;99.90;;;;;;5077081;28;20062;-54
2022/01/07 10:03:56;;;;;;;2.58;0.60;;;4.60;99.90;;;;;;5077717;28;20551;-55
2022/01/07 10:06:24;;;;;;;4.50;0.93;;;4.60;99.90;;;;;;5078495;28;20102;-55
2022/01/07 10:09:02;;;;;;;2.70;0.85;;;4.70;99.90;;;;;;5078651;28;20146;-55
2022/01/07 10:11:29;;;;;;;1.10;0.57;;;4.70;99.90;;;;;;5076895;28;20071;-57
2022/01/07 10:14:22;;;;;;;2.30;0.77;;;4.70;99.90;;;;;;5077952;28;20138;-56
2022/01/07 10:16:49;;;;;;;3.05;1.00;;;4.80;99.90;;;;;;5079959;28;20456;-55
2022/01/07 10:19:35;;;;;;;4.10;0.90;;;4.80;99.90;;;;;;5074961;28;20487;-56
2022/01/07 10:22:04;;;;;;;3.20;1.63;;;4.90;99.90;;;;;;5079187;28;20499;-55
2022/01/07 10:24:30;;;;;;;3.45;0.80;;;4.90;99.90;;;;;;5077864;28;20109;-54
2022/01/07 10:27:10;;;;;;;5.15;0.85;;;4.90;99.90;;;;;;5072936;28;20163;-55
2022/01/07 10:29:43;;;;;;;3.10;0.80;;;5.00;99.90;;;;;;5073637;28;20143;-55
2022/01/07 10:32:21;;;;;;;4.68;1.77;;;5.00;99.90;;;;;;5076285;28;20139;-54
2022/01/07 10:35:01;;;;;;;1.13;0.70;;;5.10;99.90;;;;;;5073488;28;20768;-54
2022/01/07 10:37:27;;;;;;;2.55;0.90;;;5.10;99.90;;;;;;5077009;28;20182;-57
2022/01/07 10:39:54;;;;;;;2.60;1.02;;;5.10;99.90;;;;;;5077960;28;20135;-56
2022/01/07 10:42:25;;;;;;;3.28;1.00;;;5.10;99.90;;;;;;5075408;28;20344;-57
2022/01/07 10:45:03;;;;;;;2.88;0.80;;;5.10;99.90;;;;;;5076892;28;20653;-56
2022/01/07 10:47:30;;;;;;;3.30;0.95;;;5.20;99.90;;;;;;5064685;28;20083;-57
2022/01/07 10:50:16;;;;;;;3.28;1.10;;;5.20;99.90;;;;;;5074839;28;20110;-57
2022/01/07 10:52:43;;;;;;;4.18;1.17;;;5.20;99.90;;;;;;5057623;28;20143;-56
2022/01/07 10:55:14;;;;;;;3.30;0.88;;;5.30;99.90;;;;;;5075126;28;20091;-57
2022/01/07 10:57:45;;;;;;;3.63;1.10;;;5.30;99.90;;;;;;5077056;28;20075;-54
2022/01/07 11:00:21;;;;;;;4.03;1.10;;;5.30;99.90;;;;;;5077632;28;20125;-55
2022/01/07 11:02:48;;;;;;;2.15;0.70;;;5.30;99.90;;;;;;5078545;28;20138;-56
2022/01/07 11:05:15;;;;;;;4.55;0.70;;;5.40;99.90;;;;;;5078085;28;20167;-53
2022/01/07 11:07:42;;;;;;;4.53;0.80;;;5.40;99.90;;;;;;5078130;28;20159;-55
2022/01/07 11:10:10;;;;;;;3.28;1.00;;;5.40;99.90;;;;;;5077040;28;20153;-56
2022/01/07 11:12:36;;;;;;;2.83;1.05;;;5.50;99.90;;;;;;5077665;28;20604;-52
2022/01/07 11:15:05;;;;;;;4.28;1.45;;;5.50;99.90;;;;;;5075573;28;20055;-53
2022/01/07 11:17:32;;;;;;;3.50;1.10;;;5.60;99.90;;;;;;5079461;28;20171;-56
2022/01/07 11:20:00;;;;;;;3.28;1.00;;;5.60;99.90;;;;;;5080975;28;20127;-56
2022/01/07 11:22:27;;;;;;;4.13;1.10;;;5.60;99.90;;;;;;5082061;28;20317;-55
2022/01/07 11:24:59;;;;;;;2.67;1.10;;;5.70;99.90;;;;;;5082126;28;20051;-55
2022/01/07 11:27:26;;;;;;;2.08;0.90;;;5.70;99.90;;;;;;5081617;28;20123;-55
2022/01/07 11:30:02;;;;;;;3.72;1.42;;;5.80;99.90;;;;;;5062595;28;20170;-55
2022/01/07 11:32:36;;;;;;;3.35;1.02;;;5.80;99.90;;;;;;5082042;28;20087;-56
2022/01/07 11:35:18;;;;;;;6.63;1.33;;;5.80;99.90;;;;;;5080615;28;20151;-57
2022/01/07 11:37:59;;;;;;;3.50;1.25;;;5.80;99.90;;;;;;5081725;28;20439;-56
2022/01/07 11:40:29;;;;;;;3.20;0.98;;;5.90;99.90;;;;;;5081771;28;20087;-56
2022/01/07 11:42:57;;;;;;;3.25;1.20;;;6.00;99.90;;;;;;5085523;28;20099;-56
2022/01/07 11:45:33;;;;;;;4.22;1.50;;;6.10;99.90;;;;;;5086731;28;20429;-55
2022/01/07 11:48:09;;;;;;;3.72;0.90;;;6.20;99.90;;;;;;5085696;28;20517;-53
2022/01/07 11:50:44;;;;;;;9.25;1.65;;;6.20;99.90;;;;;;5086485;28;20048;-54
2022/01/07 11:53:11;;;;;;;2.22;1.25;;;6.20;99.90;;;;;;5085882;28;20135;-56
2022/01/07 11:55:38;;;;;;;1.88;1.00;;;6.20;99.90;;;;;;5084428;28;20099;-57
2022/01/07 11:58:07;;;;;;;9.25;1.42;;;6.20;99.90;;;;;;5084683;28;20126;-56
2022/01/07 12:00:53;;;;;;;4.50;1.33;;;6.20;99.90;;;;;;5085144;28;20048;-54
2022/01/07 12:03:40;;;;;;;4.45;1.08;;;6.30;99.90;;;;;;5086426;28;20071;-56
2022/01/07 12:06:31;;;;;;;6.10;1.40;;;6.30;99.90;;;;;;5087751;28;20044;-57
2022/01/07 12:09:19;;;;;;;4.57;1.17;;;6.30;99.90;;;;;;5085589;28;20146;-57
2022/01/07 12:11:58;;;;;;;8.85;1.85;;;6.30;99.90;;;;;;5081505;28;20072;-57
2022/01/07 12:14:28;;;;;;;3.15;1.35;;;6.40;99.90;;;;;;5082425;28;20105;-56
2022/01/07 12:16:57;;;;;;;4.68;1.60;;;6.50;99.90;;;;;;5086431;28;20083;-57
2022/01/07 12:19:35;;;;;;;5.57;1.20;;;6.50;99.90;;;;;;5084865;28;20664;-58
2022/01/07 12:22:06;;;;;;;2.25;0.93;;;6.60;99.90;;;;;;5084613;28;20052;-57
2022/01/07 12:24:33;;;;;;;4.97;1.58;;;6.70;99.90;;;;;;5084058;28;20084;-56
2022/01/07 12:27:03;;;;;;;8.30;2.65;;;6.70;99.90;;;;;;5084113;28;20470;-58
2022/01/07 12:29:31;;;;;;;6.15;1.45;;;6.70;99.90;;;;;;5082372;28;20143;-57
2022/01/07 12:31:58;;;;;;;3.63;1.20;;;6.80;99.90;;;;;;5086101;28;20131;-55
2022/01/07 12:34:29;;;;;;;4.85;1.45;;;6.90;99.90;;;;;;5081628;28;20054;-57
2022/01/07 12:37:03;;;;;;;5.75;1.30;;;6.90;99.90;;;;;;5082564;28;20087;-56
2022/01/07 12:39:32;;;;;;;2.28;0.90;;;6.80;99.90;;;;;;5079189;28;20080;-57
2022/01/07 12:41:58;;;;;;;4.72;1.17;;;6.80;99.90;;;;;;5085362;28;20062;-56
2022/01/07 12:44:25;;;;;;;3.22;1.80;;;6.90;99.90;;;;;;5083970;28;20132;-56
2022/01/07 12:46:54;;;;;;;2.42;1.02;;;7.10;99.90;;;;;;5086871;28;20151;-57
2022/01/07 12:49:44;;;;;;;3.65;1.20;;;7.10;99.90;;;;;;5086208;28;20135;-56
2022/01/07 12:52:26;;;;;;;2.80;1.17;;;7.00;99.90;;;;;;5087236;28;20085;-57
2022/01/07 12:55:01;;;;;;;3.60;1.25;;;6.80;99.90;;;;;;5084535;28;20048;-57
2022/01/07 12:57:48;;;;;;;3.85;1.30;;;6.70;99.90;;;;;;5083585;28;20040;-57
2022/01/07 13:00:22;;;;;;;2.55;0.90;;;6.60;99.90;;;;;;5083358;28;20077;-56
2022/01/07 13:02:50;;;;;;;5.38;1.48;;;6.60;99.90;;;;;;5078691;28;20109;-58
2022/01/07 13:05:17;;;;;;;4.05;1.52;;;6.60;99.90;;;;;;5079460;28;20491;-57
2022/01/07 13:07:52;;;;;;;3.05;1.35;;;6.50;99.90;;;;;;5079808;28;20054;-57
2022/01/07 13:10:21;;;;;;;2.78;1.27;;;6.50;99.90;;;;;;5079884;28;20047;-57
2022/01/07 13:12:52;;;;;;;3.65;1.50;;;6.40;99.90;;;;;;5079300;28;20230;-55